Home > Products > Valid Products > TAF

000
FTUS44 KMOB 251100 RRA
TAFMOB
TAF
KMOB 251143Z 2512/2612 00000KT P6SM SKC
     FM251500 23008KT P6SM SCT250
     FM252000 21015G27KT P6SM BKN250
     FM260900 30010KT P6SM SCT250=



000
FTUS44 KMOB 251100 RRA
TAFMOB
TAF
KMOB 251143Z 2512/2612 00000KT P6SM SKC
     FM251500 23008KT P6SM SCT250
     FM252000 21015G27KT P6SM BKN250
     FM260900 30010KT P6SM SCT250=



000
FTUS44 KMOB 251100 RRA
TAFPNS
TAF
KPNS 251143Z 2512/2612 29005KT P6SM FEW250
     FM251500 25007KT P6SM SCT250
     FM252100 22017G30KT P6SM BKN250
     FM260900 30013KT P6SM BKN250=



000
FTUS44 KMOB 251100 RRA
TAFPNS
TAF
KPNS 251143Z 2512/2612 29005KT P6SM FEW250
     FM251500 25007KT P6SM SCT250
     FM252100 22017G30KT P6SM BKN250
     FM260900 30013KT P6SM BKN250=



000
FTUS44 KMOB 250500 RRA
TAFPNS
TAF
KPNS 250552Z 2506/2606 25005KT P6SM SKC
     FM251600 23014KT P6SM FEW250
     FM260300 27016KT P6SM BKN180=



000
FTUS44 KMOB 250500 RRA
TAFMOB
TAF
KMOB 250552Z 2506/2606 24005KT P6SM SKC
     FM251600 22012KT P6SM FEW250
     FM260200 21009KT P6SM BKN180=



000
FTUS44 KMOB 250500 RRA
TAFMOB
TAF
KMOB 250552Z 2506/2606 24005KT P6SM SKC
     FM251600 22012KT P6SM FEW250
     FM260200 21009KT P6SM BKN180=



000
FTUS44 KMOB 250500 RRA
TAFPNS
TAF
KPNS 250552Z 2506/2606 25005KT P6SM SKC
     FM251600 23014KT P6SM FEW250
     FM260300 27016KT P6SM BKN180=



000
FTUS44 KMOB 250000 RRA
TAFMOB
TAF
KMOB 250006Z 2500/2524 00000KT P6SM FEW250
     FM251600 22012KT P6SM FEW250=



000
FTUS44 KMOB 250000 RRA
TAFMOB
TAF
KMOB 250006Z 2500/2524 00000KT P6SM FEW250
     FM251600 22012KT P6SM FEW250=



000
FTUS44 KMOB 250000 RRA
TAFPNS
TAF
KPNS 250006Z 2500/2524 29005KT P6SM SKC
     FM251600 22013G20KT P6SM FEW250=



000
FTUS44 KMOB 250000 RRA
TAFPNS
TAF
KPNS 250006Z 2500/2524 29005KT P6SM SKC
     FM251600 22013G20KT P6SM FEW250=



000
FTUS44 KMOB 241700
TAFPNS
TAF
KPNS 241735Z 2418/2518 32014G22KT P6SM SKC
     FM242300 29005KT P6SM FEW250
     FM251600 22013G20KT P6SM FEW250=



000
FTUS44 KMOB 241700
TAFPNS
TAF
KPNS 241735Z 2418/2518 32014G22KT P6SM SKC
     FM242300 29005KT P6SM FEW250
     FM251600 22013G20KT P6SM FEW250=



000
FTUS44 KMOB 241700
TAFMOB
TAF
KMOB 241735Z 2418/2518 32010G17KT P6SM SKC
     FM242300 25004KT P6SM FEW250
     FM251600 22012KT P6SM FEW250=



000
FTUS44 KMOB 241100
TAFPNS
TAF
KPNS 241131Z 2412/2512 32011KT P6SM OVC015
      TEMPO 2412/2416 5SM BR OVC005
     FM241600 32016KT P6SM SCT250=



000
FTUS44 KMOB 241100
TAFMOB
TAF
KMOB 241131Z 2412/2512 31008KT P6SM SCT014
      TEMPO 2412/2415 5SM BR OVC005
     FM241500 32012KT P6SM SCT250=



000
FTUS44 KMOB 241100
TAFMOB
TAF
KMOB 241131Z 2412/2512 31008KT P6SM SCT014
      TEMPO 2412/2415 5SM BR OVC005
     FM241500 32012KT P6SM SCT250=



000
FTUS44 KMOB 241100
TAFPNS
TAF
KPNS 241131Z 2412/2512 32011KT P6SM OVC015
      TEMPO 2412/2416 5SM BR OVC005
     FM241600 32016KT P6SM SCT250=



000
FTUS44 KMOB 241100 AAA
TAFMOB
TAF AMD
KMOB 241111Z 2411/2506 31008KT P6SM SCT014
      TEMPO 2411/2413 5SM BR OVC010
     FM241300 32012KT P6SM SKC=



000
FTUS44 KMOB 241100 AAA
TAFMOB
TAF AMD
KMOB 241111Z 2411/2506 31008KT P6SM SCT014
      TEMPO 2411/2413 5SM BR OVC010
     FM241300 32012KT P6SM SKC=



000
FTUS44 KMOB 240500 AAA
TAFPNS
TAF AMD
KPNS 240542Z 2406/2506 31015G21KT P6SM OVC008
      TEMPO 2409/2411 5SM -SHRA BR OVC015
     FM241100 32013KT 4SM BR OVC005
      TEMPO 2412/2414 5SM BR OVC010
     FM241400 32016KT P6SM SKC=



000
FTUS44 KMOB 240500 AAA
TAFMOB
TAF AMD
KMOB 240542Z 2406/2506 31011G17KT P6SM OVC009
      TEMPO 2408/2411 5SM -SHRA BR OVC015
     FM241100 31011KT 2SM BR OVC002
      TEMPO 2411/2413 5SM BR OVC010
     FM241300 32012KT P6SM SKC=



000
FTUS44 KMOB 240500 AAA
TAFPNS
TAF AMD
KPNS 240542Z 2406/2506 31015G21KT P6SM OVC008
      TEMPO 2409/2411 5SM -SHRA BR OVC015
     FM241100 32013KT 4SM BR OVC005
      TEMPO 2412/2414 5SM BR OVC010
     FM241400 32016KT P6SM SKC=



000
FTUS44 KMOB 240500 AAA
TAFMOB
TAF AMD
KMOB 240542Z 2406/2506 31011G17KT P6SM OVC009
      TEMPO 2408/2411 5SM -SHRA BR OVC015
     FM241100 31011KT 2SM BR OVC002
      TEMPO 2411/2413 5SM BR OVC010
     FM241300 32012KT P6SM SKC=



000
FTUS44 KMOB 240500
TAFPNS
TAF
KPNS 240539Z 2406/2506 31015G21KT P6SM OVC008
      TEMPO 2409/2411 5SM -SHRA BR OVC015
     FM241100 32013KT 4SM BR OVC005
      TEMPO 2412/2415 5SM BR OVC010
     FM241500 32016KT P6SM SKC=



000
FTUS44 KMOB 240500
TAFPNS
TAF
KPNS 240539Z 2406/2506 31015G21KT P6SM OVC008
      TEMPO 2409/2411 5SM -SHRA BR OVC015
     FM241100 32013KT 4SM BR OVC005
      TEMPO 2412/2415 5SM BR OVC010
     FM241500 32016KT P6SM SKC=



000
FTUS44 KMOB 240500
TAFMOB
TAF
KMOB 240539Z 2406/2506 31011G17KT P6SM OVC009
      TEMPO 2408/2411 5SM -SHRA BR OVC015
     FM241100 31011KT 2SM BR OVC002
      TEMPO 2411/2414 5SM BR OVC010
     FM241400 32012KT P6SM SKC=



000
FTUS44 KMOB 240300 AAA
TAFPNS
TAF AMD
KPNS 240336Z 2404/2424 31013KT P6SM BKN005 OVC011
     FM241100 32013KT 4SM BR OVC007
     FM241500 32016KT P6SM SKC=



000
FTUS44 KMOB 240300 AAA
TAFPNS
TAF AMD
KPNS 240336Z 2404/2424 31013KT P6SM BKN005 OVC011
     FM241100 32013KT 4SM BR OVC007
     FM241500 32016KT P6SM SKC=



000
FTUS44 KMOB 240300 AAA
TAFPNS
TAF AMD
KPNS 240336Z 2404/2424 31013KT P6SM BKN005 OVC011
     FM241100 32013KT 4SM BR OVC007
     FM241500 32016KT P6SM SKC=



000
FTUS44 KMOB 240300 AAA
TAFPNS
TAF AMD
KPNS 240336Z 2404/2424 31013KT P6SM BKN005 OVC011
     FM241100 32013KT 4SM BR OVC007
     FM241500 32016KT P6SM SKC=



000
FTUS44 KMOB 240100 AAA
TAFMOB
TAF AMD
KMOB 240115Z 2401/2424 32009KT P6SM OVC010
     FM240300 32011KT 4SM BR OVC004
     FM240600 31011KT 2SM BR OVC001
     FM241300 32012KT P6SM SKC=



000
FTUS44 KMOB 232300 RRA
TAFMOB
TAF
KMOB 232354Z 2400/2424 32009KT P6SM OVC005
     FM240300 32011KT 4SM BR OVC004
     FM240600 31011KT 2SM BR OVC001
     FM241300 32012KT P6SM SKC=



000
FTUS44 KMOB 232300 RRA
TAFPNS
TAF
KPNS 232354Z 2400/2424 31010KT 3SM BR OVC002
     FM240200 32012KT 2SM BR OVC001
     FM241100 32013KT 4SM BR OVC007
     FM241500 32016KT P6SM SKC=



000
FTUS44 KMOB 232300 RRA
TAFPNS
TAF
KPNS 232354Z 2400/2424 31010KT 3SM BR OVC002
     FM240200 32012KT 2SM BR OVC001
     FM241100 32013KT 4SM BR OVC007
     FM241500 32016KT P6SM SKC=



000
FTUS44 KMOB 232300 RRA
TAFMOB
TAF
KMOB 232354Z 2400/2424 32009KT P6SM OVC005
     FM240300 32011KT 4SM BR OVC004
     FM240600 31011KT 2SM BR OVC001
     FM241300 32012KT P6SM SKC=



000
FTUS44 KMOB 231900 AAA
TAFMOB
TAF AMD
KMOB 231935Z 2320/2418 32008KT 5SM -RA BR OVC005
      TEMPO 2320/2324 1/2SM FG VV003
     FM240300 32011KT P6SM OVC005
     FM241300 32010KT P6SM SKC=



000
FTUS44 KMOB 231900 AAA
TAFMOB
TAF AMD
KMOB 231935Z 2320/2418 32008KT 5SM -RA BR OVC005
      TEMPO 2320/2324 1/2SM FG VV003
     FM240300 32011KT P6SM OVC005
     FM241300 32010KT P6SM SKC=



000
FTUS44 KMOB 231700
TAFPNS
TAF
KPNS 231737Z 2318/2418 32008KT 5SM -RA BR OVC004
     FM240300 32012KT 5SM -DZ OVC004
     FM240600 32011KT P6SM OVC005
     FM241500 32010KT P6SM SKC=



000
FTUS44 KMOB 231700
TAFMOB
TAF
KMOB 231737Z 2318/2418 32008KT 5SM -RA BR OVC005
     FM240300 32011KT P6SM OVC005
     FM241300 32010KT P6SM SKC=



000
FTUS44 KMOB 231700
TAFPNS
TAF
KPNS 231737Z 2318/2418 32008KT 5SM -RA BR OVC004
     FM240300 32012KT 5SM -DZ OVC004
     FM240600 32011KT P6SM OVC005
     FM241500 32010KT P6SM SKC=



000
FTUS44 KMOB 231700
TAFMOB
TAF
KMOB 231737Z 2318/2418 32008KT 5SM -RA BR OVC005
     FM240300 32011KT P6SM OVC005
     FM241300 32010KT P6SM SKC=



000
FTUS44 KMOB 231300 CCA
TAFPNS
TAF COR
KPNS 231331Z 2314/2412 04003KT P6SM -RA BKN004 OVC035
     FM231500 31004KT 2SM -RA BR OVC007
     FM240000 32009KT 2SM -DZ BR OVC004
     FM240600 31014KT 4SM BR OVC004=



000
FTUS44 KMOB 231300 AAA
TAFPNS
TAF AMD
KPNS 231328Z 2313/2412 VRB03KT P6SM -RA SCT004 BKN035 OVC110
     FM231500 31004KT 2SM -RA BR OVC007
     FM240000 32009KT 2SM -DZ BR OVC004
     FM240600 31014KT 4SM BR OVC004=



000
FTUS44 KMOB 231300 AAA
TAFPNS
TAF AMD
KPNS 231328Z 2313/2412 VRB03KT P6SM -RA SCT004 BKN035 OVC110
     FM231500 31004KT 2SM -RA BR OVC007
     FM240000 32009KT 2SM -DZ BR OVC004
     FM240600 31014KT 4SM BR OVC004=



000
FTUS44 KMOB 231300 AAA
TAFMOB
TAF AMD
KMOB 231327Z 2313/2412 35005KT 1 1/2SM -RA BR OVC004
     FM231600 34010KT 4SM -RA BR OVC004
     FM240600 31011KT P6SM OVC007=



000
FTUS44 KMOB 231300 AAA
TAFMOB
TAF AMD
KMOB 231327Z 2313/2412 35005KT 1 1/2SM -RA BR OVC004
     FM231600 34010KT 4SM -RA BR OVC004
     FM240600 31011KT P6SM OVC007=



000
FTUS44 KMOB 231100
TAFPNS
TAF
KPNS 231120Z 2312/2412 04007KT P6SM -RA BKN006 BKN050 OVC080
     FM231500 31004KT 2SM -RA BR OVC007
     FM240000 32009KT 2SM -DZ BR OVC004
     FM240600 31014KT 4SM BR OVC004=



000
FTUS44 KMOB 231100
TAFPNS
TAF
KPNS 231120Z 2312/2412 04007KT P6SM -RA BKN006 BKN050 OVC080
     FM231500 31004KT 2SM -RA BR OVC007
     FM240000 32009KT 2SM -DZ BR OVC004
     FM240600 31014KT 4SM BR OVC004=



000
FTUS44 KMOB 231100
TAFMOB
TAF
KMOB 231120Z 2312/2412 09006KT P6SM OVC004
     FM231600 34010KT 4SM -RA BR OVC004
     FM240600 31011KT P6SM OVC007=



000
FTUS44 KMOB 231100
TAFMOB
TAF
KMOB 231120Z 2312/2412 09006KT P6SM OVC004
     FM231600 34010KT 4SM -RA BR OVC004
     FM240600 31011KT P6SM OVC007=



000
FTUS44 KMOB 231000 AAA
TAFPNS
TAF AMD
KPNS 231049Z 2311/2406 04008KT 4SM +RA BR FEW005 BKN045 OVC060
     FM231400 32012KT P6SM VCSH OVC005=



000
FTUS44 KMOB 231000 AAA
TAFPNS
TAF AMD
KPNS 231049Z 2311/2406 04008KT 4SM +RA BR FEW005 BKN045 OVC060
     FM231400 32012KT P6SM VCSH OVC005=



000
FTUS44 KMOB 231000 AAA
TAFMOB
TAF AMD
KMOB 231049Z 2311/2406 08009G17KT P6SM -RA OVC004
     FM231600 34010KT 4SM -RA BR OVC005=



000
FTUS44 KMOB 231000 AAA
TAFMOB
TAF AMD
KMOB 231049Z 2311/2406 08009G17KT P6SM -RA OVC004
     FM231600 34010KT 4SM -RA BR OVC005=



000
FTUS44 KMOB 230500 RRA
TAFMOB
TAF
KMOB 230548Z 2306/2406 03014G20KT 2SM +RA BR BKN007 OVC010
     FM231600 34010KT 4SM -RA BR OVC005=



000
FTUS44 KMOB 230500 RRA
TAFPNS
TAF
KPNS 230548Z 2306/2406 02014G20KT 3SM +RA BR BKN020 BKN025 OVC030
     FM230700 04015KT 4SM -RA BR OVC007
     FM231400 32012KT P6SM VCSH OVC005=



000
FTUS44 KMOB 222300 RRA
TAFPNS
TAF
KPNS 222351Z 2300/2324 04005KT P6SM VCSH BKN026 OVC110
     FM230300 04015KT 4SM -RA BR OVC010
     FM230700 04015KT 4SM -RA BR OVC007
     FM231700 32007KT P6SM VCSH OVC005=



000
FTUS44 KMOB 222300 RRA
TAFMOB
TAF
KMOB 222351Z 2300/2324 04010KT P6SM VCSH SCT035 BKN045 OVC070
     FM230200 04015KT 4SM -RA BR OVC010
     FM230600 04015KT 4SM -RA BR OVC007
     FM231400 32007KT P6SM VCSH OVC005=



000
FTUS44 KMOB 222300 RRA
TAFMOB
TAF
KMOB 222351Z 2300/2324 04010KT P6SM VCSH SCT035 BKN045 OVC070
     FM230200 04015KT 4SM -RA BR OVC010
     FM230600 04015KT 4SM -RA BR OVC007
     FM231400 32007KT P6SM VCSH OVC005=



000
FTUS44 KMOB 222300 RRA
TAFPNS
TAF
KPNS 222351Z 2300/2324 04005KT P6SM VCSH BKN026 OVC110
     FM230300 04015KT 4SM -RA BR OVC010
     FM230700 04015KT 4SM -RA BR OVC007
     FM231700 32007KT P6SM VCSH OVC005=



000
FTUS44 KMOB 221700
TAFPNS
TAF
KPNS 221730Z 2218/2318 10007KT P6SM SCT070
     FM222100 03012KT P6SM VCSH OVC025
     FM230200 04015KT 4SM -RA BR OVC010
     FM230600 04015KT 4SM -RA BR OVC007 PROB30 2308/2314 4SM TSRA
      BKN007CB=



000
FTUS44 KMOB 221700
TAFPNS
TAF
KPNS 221730Z 2218/2318 10007KT P6SM SCT070
     FM222100 03012KT P6SM VCSH OVC025
     FM230200 04015KT 4SM -RA BR OVC010
     FM230600 04015KT 4SM -RA BR OVC007 PROB30 2308/2314 4SM TSRA
      BKN007CB=



000
FTUS44 KMOB 221700
TAFMOB
TAF
KMOB 221730Z 2218/2318 07013G20KT P6SM BKN140 OVC200
     FM222000 03012KT P6SM VCSH OVC025
     FM230100 04015KT 4SM -RA BR OVC010
     FM230600 04015KT 4SM -RA BR OVC007 PROB30 2308/2314 4SM TSRA
      BKN007CB=



000
FTUS44 KMOB 221700
TAFMOB
TAF
KMOB 221730Z 2218/2318 07013G20KT P6SM BKN140 OVC200
     FM222000 03012KT P6SM VCSH OVC025
     FM230100 04015KT 4SM -RA BR OVC010
     FM230600 04015KT 4SM -RA BR OVC007 PROB30 2308/2314 4SM TSRA
      BKN007CB=



    US Dept of Commerce
    National Oceanic and Atmospheric Administration
    National Weather Service
    1325 East West Highway
    Silver Spring, MD 20910
    Page Author: NWS Internet Services Team
Disclaimer
Information Quality
Credits
Glossary
Privacy Policy
Freedom of Information Act (FOIA)
About Us
Career Opportunities